Accueil
METAR-TAF:

METAR-TAF

Aéroports :

Diest, Belgique

Base aérienne de Schaffen

latitude: 51-00N, longitude: 005-04E, altitude: 30 m

Observation

Le bulletin a été fait il y a 1 heure et 23 minutes, à 17:55 UTC
Vent 6 kt de ouest
Température 13°C
Humidité 44%
Pression 1017 hPa
Visibilité 10 km ou plus
Quelques nuages à une hauteur de 5000 ft

METAR: EBDT 261755Z 27006KT 9999 FEW050 13/01 Q1017 BLU BLU

Heure: 21:18 (19:18 UTC)

Prévision

Le bulletin a été fait il y a 3 heures et 37 minutes, à 15:41 UTC
Prévision valable du 26 à 19 UTC au 27 à 07 UTC
Vent 8 kt de sud-ouest
Visibilité 10 km ou plus
Quelques nuages à une hauteur de 4000 ft
Evoluant progressivement
du 27 à 04 UTC au 27 à 06 UTC
Vent 3 kt de sud
Nuages fragmentés à une hauteur de 9000 ft

TAF: EBDT 261541Z 2619/2707 23008KT 9999 FEW040 BECMG 2704/2706 17003KT BKN090

Observations et prévisions météorologiques de plus de 4000 aéroports (messages METAR et TAF).

Les stations disponibles sont représentées par des disques jaunes et rouges sur la carte.

Passer la souris dessus pour voir le nom de la station.

Cliquer dessus pour voir les observations et prévisions météorologiques.

Pour changer de carte: cliquez sur les boutons verts avec une croix noire pour zoomer, sur le bouton vert avec un tiret pour effectuer un zoom arrière, ou sur les flèches vertes pour les cartes adjacentes.


METAR-TAF: